createdAt,value
2022-10-09T00:01:22.334Z,97.43
2022-10-09T00:03:51.464Z,97.46
2022-10-09T00:06:20.797Z,97.26
2022-10-09T00:08:47.562Z,96.92
2022-10-09T00:11:20.337Z,97.04
2022-10-09T00:13:47.333Z,97.30
2022-10-09T00:16:15.878Z,97.54
2022-10-09T00:18:43.008Z,97.29
2022-10-09T00:21:25.195Z,97.19
2022-10-09T00:23:53.848Z,96.97
2022-10-09T00:26:20.768Z,97.05
2022-10-09T00:28:47.734Z,96.81
2022-10-09T00:31:15.175Z,97.03
2022-10-09T00:33:41.732Z,97.39
2022-10-09T00:36:12.228Z,97.30
2022-10-09T00:38:38.915Z,97.54
2022-10-09T00:41:06.917Z,97.32
2022-10-09T00:43:38.417Z,97.63
2022-10-09T00:46:05.394Z,97.54
2022-10-09T00:48:33.718Z,97.74
2022-10-09T00:51:02.026Z,97.83
2022-10-09T00:53:30.174Z,97.60
2022-10-09T00:55:58.015Z,97.44
2022-10-09T00:58:25.897Z,97.59
2022-10-09T01:00:53.059Z,97.44
2022-10-09T01:03:19.871Z,97.64
2022-10-09T01:06:20.123Z,97.18
2022-10-09T01:09:01.645Z,97.56
2022-10-09T01:11:42.406Z,97.35
2022-10-09T01:14:32.832Z,97.82
2022-10-09T01:17:24.852Z,97.54
2022-10-09T01:20:08.624Z,97.37
2022-10-09T01:22:59.361Z,97.23
2022-10-09T01:25:53.938Z,96.98
2022-10-09T01:28:23.712Z,96.99
2022-10-09T01:30:50.839Z,97.29
2022-10-09T01:33:18.423Z,97.23
2022-10-09T01:35:46.500Z,97.32
2022-10-09T01:38:14.876Z,97.24
2022-10-09T01:40:42.229Z,97.16
2022-10-09T01:43:08.679Z,97.22
2022-10-09T01:45:38.702Z,97.27
2022-10-09T01:48:07.633Z,97.19
2022-10-09T01:50:39.492Z,97.65
2022-10-09T01:53:13.976Z,97.25
2022-10-09T01:55:57.476Z,97.35
2022-10-09T01:58:31.496Z,97.22
2022-10-09T02:01:30.230Z,96.86
2022-10-09T02:03:58.857Z,97.59
2022-10-09T02:06:28.104Z,97.53
2022-10-09T02:08:55.478Z,97.41
2022-10-09T02:11:27.663Z,97.24
2022-10-09T02:13:56.112Z,97.32
2022-10-09T02:16:37.341Z,97.37
2022-10-09T02:19:17.525Z,97.81
2022-10-09T02:22:00.896Z,97.54
2022-10-09T02:24:28.529Z,97.93
2022-10-09T02:26:57.455Z,97.64
2022-10-09T02:29:24.788Z,97.94
2022-10-09T02:31:51.571Z,97.40
2022-10-09T02:34:19.723Z,97.45
2022-10-09T02:36:47.441Z,97.10
2022-10-09T02:39:14.641Z,97.06
2022-10-09T02:41:41.088Z,96.77
2022-10-09T02:44:07.660Z,97.30
2022-10-09T02:46:34.857Z,97.39
2022-10-09T02:49:01.635Z,97.29
2022-10-09T02:51:28.109Z,97.47
2022-10-09T02:53:54.754Z,97.26
2022-10-09T02:56:22.626Z,96.97
2022-10-09T02:58:49.521Z,97.09
2022-10-09T03:01:16.382Z,96.91
2022-10-09T03:03:43.073Z,96.89
2022-10-09T03:06:21.598Z,97.23
2022-10-09T03:08:50.107Z,97.32
2022-10-09T03:11:18.339Z,97.12
2022-10-09T03:13:45.248Z,97.36
2022-10-09T03:16:15.113Z,97.68
2022-10-09T03:18:42.602Z,97.75
2022-10-09T03:21:18.243Z,97.24
2022-10-09T03:23:45.162Z,97.05
2022-10-09T03:26:15.607Z,96.74
2022-10-09T03:28:47.162Z,96.93
2022-10-09T03:31:27.642Z,96.59
2022-10-09T03:34:01.726Z,96.64
2022-10-09T03:36:28.315Z,96.64
2022-10-09T03:38:54.860Z,96.54
2022-10-09T03:41:21.311Z,96.78
2022-10-09T03:43:47.742Z,97.03
2022-10-09T03:46:14.271Z,97.04
2022-10-09T03:48:40.785Z,96.94
2022-10-09T03:51:07.764Z,96.90
2022-10-09T03:53:34.453Z,97.09
2022-10-09T03:56:00.901Z,97.02
2022-10-09T03:58:27.364Z,97.17
2022-10-09T04:00:54.127Z,97.14
2022-10-09T04:03:21.125Z,97.27
2022-10-09T04:05:47.943Z,97.27
2022-10-09T04:08:14.717Z,97.41
2022-10-09T04:10:41.527Z,97.29
2022-10-09T04:13:08.034Z,97.36
2022-10-09T04:15:35.413Z,97.57
2022-10-09T04:18:02.125Z,97.32
2022-10-09T04:20:28.628Z,97.27
2022-10-09T04:22:55.115Z,97.20
2022-10-09T04:25:21.727Z,97.24
2022-10-09T04:27:48.273Z,97.29
2022-10-09T04:30:14.981Z,97.84
2022-10-09T04:32:41.605Z,97.47
2022-10-09T04:35:08.550Z,97.51
2022-10-09T04:37:36.905Z,97.63
2022-10-09T04:40:04.551Z,97.68
2022-10-09T04:42:31.001Z,97.64
2022-10-09T04:44:57.514Z,97.73
2022-10-09T04:47:24.036Z,97.62
2022-10-09T04:49:50.559Z,97.65
2022-10-09T04:52:17.101Z,97.34
2022-10-09T04:54:43.607Z,97.37
2022-10-09T04:57:10.333Z,97.27
2022-10-09T04:59:36.792Z,97.19
2022-10-09T05:02:04.010Z,97.51
2022-10-09T05:04:30.732Z,97.39
2022-10-09T05:06:57.275Z,97.34
2022-10-09T05:09:23.822Z,97.34
2022-10-09T05:11:50.624Z,97.61
2022-10-09T05:14:17.280Z,97.18
2022-10-09T05:17:08.387Z,97.30
2022-10-09T05:19:30.370Z,97.26
2022-10-09T05:21:56.868Z,97.07
2022-10-09T05:24:23.324Z,97.12
2022-10-09T05:26:49.820Z,97.08
2022-10-09T05:29:16.282Z,97.04
2022-10-09T05:31:48.342Z,96.62
2022-10-09T05:34:15.670Z,96.62
2022-10-09T05:36:42.157Z,96.65
2022-10-09T05:39:08.608Z,96.53
2022-10-09T05:41:35.081Z,96.72
2022-10-09T05:44:02.785Z,96.72
2022-10-09T05:46:30.319Z,96.89
2022-10-09T05:49:01.735Z,96.62
2022-10-09T05:51:30.677Z,96.94
2022-10-09T05:53:58.512Z,97.12
2022-10-09T05:56:30.468Z,96.98
2022-10-09T05:59:02.572Z,97.02
2022-10-09T06:01:35.482Z,96.92
2022-10-09T06:04:02.907Z,97.17
2022-10-09T06:06:32.943Z,97.13
2022-10-09T06:09:00.099Z,97.34
2022-10-09T06:11:33.194Z,97.62
2022-10-09T06:14:01.653Z,97.47
2022-10-09T06:16:40.609Z,97.67
2022-10-09T06:19:08.556Z,97.79
2022-10-09T06:21:35.356Z,97.76
2022-10-09T06:24:04.364Z,97.75
2022-10-09T06:26:32.460Z,97.74
2022-10-09T06:29:01.285Z,97.79
2022-10-09T06:31:33.113Z,97.76
2022-10-09T06:34:01.136Z,97.95
2022-10-09T06:36:30.293Z,97.93
2022-10-09T06:38:59.519Z,97.84
2022-10-09T06:41:27.159Z,97.96
2022-10-09T06:43:56.335Z,98.09
2022-10-09T06:46:26.176Z,98.22
2022-10-09T06:48:52.936Z,98.22
2022-10-09T06:51:21.577Z,98.39
2022-10-09T06:53:52.195Z,98.45
2022-10-09T06:56:20.804Z,98.82
2022-10-09T06:58:47.939Z,98.31
2022-10-09T07:01:21.820Z,98.48
2022-10-09T07:03:53.921Z,98.55
2022-10-09T07:06:26.230Z,98.82
2022-10-09T07:08:55.258Z,98.60
2022-10-09T07:11:27.708Z,98.75
2022-10-09T07:14:00.255Z,99.27
2022-10-09T07:16:35.900Z,98.96
2022-10-09T07:19:07.421Z,99.04
2022-10-09T07:21:35.095Z,99.09
2022-10-09T07:24:03.110Z,98.49
2022-10-09T07:26:31.821Z,98.50
2022-10-09T07:28:58.994Z,98.69
2022-10-09T07:31:26.035Z,98.49
2022-10-09T07:33:55.355Z,98.45
2022-10-09T07:36:22.420Z,98.52
2022-10-09T07:38:53.965Z,98.77
2022-10-09T07:41:22.172Z,98.69
2022-10-09T07:43:48.877Z,98.42
2022-10-09T07:46:18.237Z,98.22
2022-10-09T07:48:45.964Z,98.33
2022-10-09T07:51:18.033Z,97.80
2022-10-09T07:53:44.976Z,96.75
2022-10-09T07:56:17.095Z,95.92
2022-10-09T07:58:44.099Z,95.63
2022-10-09T08:01:10.785Z,96.12
2022-10-09T08:03:38.139Z,95.94
2022-10-09T08:06:05.199Z,96.06
2022-10-09T08:08:32.323Z,96.53
2022-10-09T08:11:00.256Z,96.09
2022-10-09T08:13:26.779Z,96.07
2022-10-09T08:15:53.312Z,95.93
2022-10-09T08:18:19.864Z,95.17
2022-10-09T08:20:59.863Z,94.97
2022-10-09T08:23:26.548Z,94.88
2022-10-09T08:25:53.286Z,94.74
2022-10-09T08:28:19.950Z,94.90
2022-10-09T08:30:46.582Z,95.24
2022-10-09T08:33:13.106Z,95.51
2022-10-09T08:35:39.930Z,94.64
2022-10-09T08:38:06.570Z,94.35
2022-10-09T08:40:48.949Z,92.69
2022-10-09T08:43:20.357Z,92.99
2022-10-09T08:45:48.971Z,93.74
2022-10-09T08:48:20.890Z,94.05
2022-10-09T08:50:50.712Z,93.98
2022-10-09T08:53:37.569Z,94.51
2022-10-09T08:56:10.942Z,94.11
2022-10-09T08:58:39.982Z,94.54
2022-10-09T09:01:31.371Z,94.36
2022-10-09T09:04:35.673Z,92.50
2022-10-09T09:07:05.194Z,91.80
2022-10-09T09:09:59.708Z,91.02
2022-10-09T09:12:44.233Z,91.02
2022-10-09T09:15:25.983Z,92.13
2022-10-09T09:18:04.672Z,90.83
2022-10-09T09:20:39.199Z,91.66
2022-10-09T09:23:13.611Z,89.82
2022-10-09T09:25:42.164Z,89.35
2022-10-09T09:28:33.146Z,89.11
2022-10-09T09:31:23.074Z,90.78
2022-10-09T09:34:26.871Z,90.78
2022-10-09T09:36:59.758Z,90.11
2022-10-09T09:42:19.572Z,89.27
2022-10-09T09:44:58.297Z,89.72
2022-10-09T09:47:36.361Z,87.37
2022-10-09T09:50:23.459Z,88.11
2022-10-09T09:52:57.068Z,88.32
2022-10-09T09:55:34.391Z,86.80
2022-10-09T09:58:09.562Z,85.97
2022-10-09T10:00:36.364Z,84.38
2022-10-09T10:03:15.405Z,84.83
2022-10-09T10:05:44.491Z,83.06
2022-10-09T10:08:16.208Z,84.67
2022-10-09T10:10:47.864Z,81.81
2022-10-09T10:13:18.085Z,82.69
2022-10-09T10:16:04.250Z,83.30
2022-10-09T10:18:37.896Z,81.76
2022-10-09T10:21:14.868Z,80.09
2022-10-09T10:23:50.821Z,80.63
2022-10-09T10:26:42.243Z,77.31
2022-10-09T10:29:23.109Z,75.89
2022-10-09T10:32:04.518Z,78.37
2022-10-09T10:34:35.558Z,76.62
2022-10-09T10:37:20.745Z,75.30
2022-10-09T10:40:12.787Z,75.02
2022-10-09T10:43:10.187Z,72.26
2022-10-09T10:45:42.888Z,68.61
2022-10-09T10:48:18.059Z,72.21
2022-10-09T10:51:03.219Z,73.18
2022-10-09T10:53:41.308Z,74.06
2022-10-09T10:56:27.785Z,69.63
2022-10-09T10:59:29.084Z,69.09
2022-10-09T11:02:24.509Z,68.94
2022-10-09T11:05:38.480Z,61.62
2022-10-09T11:08:23.690Z,66.28
2022-10-09T11:10:59.083Z,67.87
2022-10-09T11:13:36.291Z,68.52
2022-10-09T11:16:42.505Z,66.71
2022-10-09T11:19:17.989Z,68.10
2022-10-09T11:22:06.085Z,65.09
2022-10-09T11:25:06.672Z,64.71
2022-10-09T11:27:37.639Z,60.49
2022-10-09T11:30:13.366Z,63.72
2022-10-09T11:33:19.596Z,61.70
2022-10-09T11:36:00.737Z,64.39
2022-10-09T11:38:37.296Z,64.07
2022-10-09T11:41:07.423Z,63.21
2022-10-09T11:43:46.218Z,62.42
2022-10-09T11:46:41.955Z,60.63
2022-10-09T11:49:22.043Z,63.34
2022-10-09T11:52:14.710Z,63.04
2022-10-09T11:54:41.285Z,59.86
2022-10-09T11:57:11.646Z,60.57
2022-10-09T11:59:43.832Z,59.52
2022-10-09T12:02:25.046Z,60.09
2022-10-09T12:04:55.224Z,58.97
2022-10-09T12:10:33.761Z,60.19
2022-10-09T12:13:03.994Z,63.02
2022-10-09T12:15:54.248Z,56.51
2022-10-09T12:18:39.298Z,58.69
2022-10-09T12:21:17.926Z,59.64
2022-10-09T12:23:47.376Z,59.87
2022-10-09T12:26:15.260Z,61.82
2022-10-09T12:28:48.340Z,62.89
2022-10-09T12:31:28.988Z,63.45
2022-10-09T12:34:33.725Z,64.37
2022-10-09T12:37:15.269Z,64.62
2022-10-09T12:39:42.318Z,64.64
2022-10-09T12:42:16.467Z,63.99
2022-10-09T12:44:56.473Z,62.76
2022-10-09T12:47:28.359Z,62.67
2022-10-09T12:49:59.572Z,62.28
2022-10-09T12:52:26.737Z,60.02
2022-10-09T12:54:53.908Z,59.57
2022-10-09T12:57:26.858Z,59.98
2022-10-09T12:59:54.596Z,58.95
2022-10-09T13:02:22.377Z,59.70
2022-10-09T13:05:00.908Z,59.67
2022-10-09T13:07:29.998Z,57.56
2022-10-09T13:10:06.639Z,57.12
2022-10-09T13:12:34.217Z,55.10
2022-10-09T13:15:05.007Z,55.35
2022-10-09T13:17:37.886Z,56.61
2022-10-09T13:20:29.876Z,55.64
2022-10-09T13:23:05.675Z,56.11
2022-10-09T13:25:36.124Z,55.49
2022-10-09T13:28:03.874Z,55.19
2022-10-09T13:30:30.501Z,56.71
2022-10-09T13:32:57.444Z,58.35
2022-10-09T13:35:24.413Z,58.02
2022-10-09T13:37:51.326Z,57.77
2022-10-09T13:40:21.775Z,56.95
2022-10-09T13:42:58.210Z,57.03
2022-10-09T13:45:25.017Z,58.26
2022-10-09T13:47:52.039Z,58.28
2022-10-09T13:50:19.760Z,57.59
2022-10-09T13:52:46.623Z,59.84
2022-10-09T13:55:13.492Z,58.04
2022-10-09T13:57:40.014Z,58.95
2022-10-09T14:00:07.675Z,57.24
2022-10-09T14:02:36.152Z,60.42
2022-10-09T14:05:05.029Z,58.13
2022-10-09T14:07:31.631Z,59.48
2022-10-09T14:10:01.328Z,59.04
2022-10-09T14:15:47.944Z,58.19
2022-10-09T14:18:16.145Z,58.30
2022-10-09T14:20:42.673Z,57.76
2022-10-09T14:23:09.375Z,58.91
2022-10-09T14:25:36.171Z,57.31
2022-10-09T14:28:03.368Z,61.59
2022-10-09T14:30:30.188Z,61.76
2022-10-09T14:32:56.775Z,61.20
2022-10-09T14:35:23.520Z,60.76
2022-10-09T14:37:50.215Z,61.48
2022-10-09T14:40:17.055Z,64.52
2022-10-09T14:42:43.548Z,62.73
2022-10-09T14:45:10.779Z,60.92
2022-10-09T14:47:37.536Z,61.19
2022-10-09T14:50:04.384Z,65.03
2022-10-09T14:52:31.001Z,65.24
2022-10-09T14:55:00.369Z,64.50
2022-10-09T14:57:30.276Z,64.00
2022-10-09T14:59:59.465Z,65.52
2022-10-09T15:02:26.125Z,65.10
2022-10-09T15:04:52.748Z,59.96
2022-10-09T15:07:19.301Z,60.77
2022-10-09T15:09:45.787Z,61.32
2022-10-09T15:12:12.418Z,61.79
2022-10-09T15:15:08.762Z,61.31
2022-10-09T15:17:35.340Z,60.77
2022-10-09T15:20:01.867Z,62.92
2022-10-09T15:22:28.388Z,64.21
2022-10-09T15:24:54.866Z,65.56
2022-10-09T15:27:21.596Z,66.44
2022-10-09T15:29:48.293Z,65.92
2022-10-09T15:32:14.834Z,66.68
2022-10-09T15:34:41.405Z,67.28
2022-10-09T15:37:07.840Z,67.89
2022-10-09T15:39:34.280Z,68.32
2022-10-09T15:42:00.744Z,69.32
2022-10-09T15:44:27.242Z,69.77
2022-10-09T15:46:53.712Z,70.17
2022-10-09T15:49:20.208Z,70.69
2022-10-09T15:51:46.774Z,71.42
2022-10-09T15:54:14.761Z,72.39
2022-10-09T15:56:42.305Z,71.99
2022-10-09T15:59:13.558Z,71.77
2022-10-09T16:04:22.224Z,71.74
2022-10-09T16:06:48.745Z,71.99
2022-10-09T16:09:15.177Z,72.19
2022-10-09T16:11:41.627Z,72.18
2022-10-09T16:14:08.340Z,72.33
2022-10-09T16:16:35.001Z,72.49
2022-10-09T16:19:03.814Z,73.18
2022-10-09T16:21:30.532Z,73.64
2022-10-09T16:23:59.513Z,74.22
2022-10-09T16:26:28.437Z,74.97
2022-10-09T16:28:55.032Z,75.44
2022-10-09T16:31:30.685Z,76.07
2022-10-09T16:33:58.138Z,76.69
2022-10-09T16:36:24.706Z,77.44
2022-10-09T16:38:51.172Z,78.58
2022-10-09T16:41:20.048Z,79.24
2022-10-09T16:43:51.611Z,80.11
2022-10-09T16:46:23.750Z,80.52
2022-10-09T16:48:54.527Z,81.14
2022-10-09T16:51:24.224Z,81.27
2022-10-09T16:53:52.286Z,81.48
2022-10-09T16:56:21.290Z,81.57
2022-10-09T16:58:48.857Z,82.17
2022-10-09T17:01:15.938Z,82.34
2022-10-09T17:03:43.676Z,82.29
2022-10-09T17:06:23.818Z,81.99
2022-10-09T17:08:51.712Z,82.07
2022-10-09T17:11:18.913Z,81.89
2022-10-09T17:13:46.177Z,81.95
2022-10-09T17:16:18.289Z,81.99
2022-10-09T17:18:46.901Z,81.86
2022-10-09T17:21:15.093Z,81.69
2022-10-09T17:23:41.703Z,81.82
2022-10-09T17:26:17.636Z,81.87
2022-10-09T17:28:45.819Z,82.54
2022-10-09T17:31:15.434Z,82.87
2022-10-09T17:33:44.940Z,83.43
2022-10-09T17:36:20.050Z,83.22
2022-10-09T17:38:47.857Z,84.07
2022-10-09T17:41:16.066Z,83.80
2022-10-09T17:43:42.767Z,84.67
2022-10-09T17:46:09.533Z,84.94
2022-10-09T17:48:36.746Z,85.54
2022-10-09T17:51:04.128Z,85.54
2022-10-09T17:53:31.333Z,85.38
2022-10-09T17:56:03.445Z,85.67
2022-10-09T17:58:30.034Z,85.35
2022-10-09T18:00:56.624Z,86.04
2022-10-09T18:03:23.203Z,86.12
2022-10-09T18:05:51.592Z,86.69
2022-10-09T18:08:19.220Z,86.79
2022-10-09T18:10:46.382Z,86.47
2022-10-09T18:13:12.889Z,86.84
2022-10-09T18:15:41.464Z,87.06
2022-10-09T18:18:08.709Z,87.11
2022-10-09T18:20:36.461Z,87.37
2022-10-09T18:23:03.801Z,87.43
2022-10-09T18:25:30.381Z,87.72
2022-10-09T18:27:56.908Z,87.54
2022-10-09T18:30:23.638Z,87.77
2022-10-09T18:32:50.409Z,88.39
2022-10-09T18:35:17.195Z,88.32
2022-10-09T18:37:43.688Z,88.29
2022-10-09T18:40:10.251Z,88.49
2022-10-09T18:42:36.924Z,88.54
2022-10-09T18:45:04.481Z,88.89
2022-10-09T18:47:34.893Z,88.56
2022-10-09T18:50:06.624Z,88.53
2022-10-09T18:52:34.891Z,87.73
2022-10-09T18:55:02.538Z,88.09
2022-10-09T18:57:29.475Z,88.33
2022-10-09T18:59:58.358Z,88.19
2022-10-09T19:02:27.057Z,88.49
2022-10-09T19:04:54.701Z,88.41
2022-10-09T19:07:22.483Z,88.47
2022-10-09T19:09:53.555Z,89.15
2022-10-09T19:12:22.917Z,89.30
2022-10-09T19:14:49.553Z,89.36
2022-10-09T19:17:16.108Z,89.66
2022-10-09T19:19:42.640Z,89.64
2022-10-09T19:22:14.863Z,89.65
2022-10-09T19:24:43.867Z,89.79
2022-10-09T19:27:10.456Z,89.87
2022-10-09T19:29:37.985Z,89.72
2022-10-09T19:32:04.668Z,89.83
2022-10-09T19:34:31.700Z,90.10
2022-10-09T19:36:58.483Z,90.07
2022-10-09T19:39:25.026Z,90.43
2022-10-09T19:41:51.621Z,90.37
2022-10-09T19:44:19.426Z,90.17
2022-10-09T19:46:45.960Z,90.32
2022-10-09T19:49:12.682Z,90.54
2022-10-09T19:51:39.637Z,90.37
2022-10-09T19:54:08.272Z,90.47
2022-10-09T19:56:36.454Z,90.39
2022-10-09T19:59:06.176Z,90.25
2022-10-09T20:01:35.369Z,90.27
2022-10-09T20:04:05.852Z,90.14
2022-10-09T20:06:32.661Z,90.12
2022-10-09T20:08:59.375Z,90.36
2022-10-09T20:11:26.900Z,90.38
2022-10-09T20:13:56.187Z,90.74
2022-10-09T20:16:24.546Z,90.42
2022-10-09T20:18:51.207Z,90.57
2022-10-09T20:21:18.100Z,91.18
2022-10-09T20:23:45.243Z,90.92
2022-10-09T20:26:17.939Z,91.17
2022-10-09T20:28:47.273Z,91.37
2022-10-09T20:31:20.730Z,91.54
2022-10-09T20:33:48.853Z,91.79
2022-10-09T20:36:22.178Z,91.54
2022-10-09T20:38:49.325Z,92.09
2022-10-09T20:41:16.179Z,92.27
2022-10-09T20:43:42.747Z,92.24
2022-10-09T20:46:13.393Z,92.49
2022-10-09T20:48:41.652Z,92.26
2022-10-09T20:51:08.253Z,92.07
2022-10-09T20:53:34.779Z,92.09
2022-10-09T20:56:04.981Z,92.45
2022-10-09T20:58:35.205Z,92.51
2022-10-09T21:01:06.037Z,92.32
2022-10-09T21:03:33.532Z,92.63
2022-10-09T21:06:06.174Z,92.52
2022-10-09T21:08:33.436Z,92.65
2022-10-09T21:11:04.351Z,92.51
2022-10-09T21:13:30.848Z,92.64
2022-10-09T21:15:57.411Z,92.76
2022-10-09T21:18:24.087Z,92.85
2022-10-09T21:20:50.715Z,92.60
2022-10-09T21:23:18.763Z,92.97
2022-10-09T21:25:50.279Z,92.79
2022-10-09T21:28:19.248Z,92.53
2022-10-09T21:30:46.124Z,92.90
2022-10-09T21:33:13.076Z,92.97
2022-10-09T21:35:41.543Z,92.76
2022-10-09T21:38:12.955Z,92.85
2022-10-09T21:40:40.308Z,92.98
2022-10-09T21:43:07.189Z,93.18
2022-10-09T21:45:33.748Z,93.54
2022-10-09T21:48:00.261Z,93.45
2022-10-09T21:50:26.907Z,94.19
2022-10-09T21:52:53.473Z,94.07
2022-10-09T21:55:20.058Z,93.24
2022-10-09T21:57:46.706Z,93.14
2022-10-09T22:00:14.409Z,93.33
2022-10-09T22:02:40.880Z,93.60
2022-10-09T22:05:08.006Z,93.32
2022-10-09T22:07:34.756Z,93.02
2022-10-09T22:10:01.667Z,93.36
2022-10-09T22:12:28.132Z,93.27
2022-10-09T22:14:55.763Z,93.24
2022-10-09T22:17:22.504Z,93.15
2022-10-09T22:19:49.151Z,92.87
2022-10-09T22:22:15.598Z,92.81
2022-10-09T22:24:42.100Z,92.71
2022-10-09T22:27:08.589Z,92.92
2022-10-09T22:29:36.107Z,93.17
2022-10-09T22:32:02.620Z,92.74
2022-10-09T22:34:29.183Z,92.63
2022-10-09T22:36:55.823Z,92.71
2022-10-09T22:39:22.373Z,92.96
2022-10-09T22:41:48.915Z,92.97
2022-10-09T22:44:15.357Z,92.37
2022-10-09T22:46:44.611Z,92.77
2022-10-09T22:49:14.254Z,92.81
2022-10-09T22:51:41.252Z,92.72
2022-10-09T22:54:08.515Z,92.81
2022-10-09T22:56:38.924Z,92.90
2022-10-09T22:59:06.939Z,92.79
2022-10-09T23:01:42.766Z,92.69
2022-10-09T23:04:12.943Z,92.99
2022-10-09T23:06:40.647Z,92.67
2022-10-09T23:09:09.383Z,93.09
2022-10-09T23:11:36.266Z,92.94
2022-10-09T23:14:03.536Z,92.97
2022-10-09T23:16:31.146Z,93.24
2022-10-09T23:18:58.320Z,93.30
2022-10-09T23:21:25.412Z,93.14
2022-10-09T23:23:52.448Z,93.58
2022-10-09T23:26:25.129Z,93.46
2022-10-09T23:28:54.565Z,93.63
2022-10-09T23:31:21.919Z,93.60
2022-10-09T23:33:48.827Z,93.73
2022-10-09T23:36:18.344Z,93.72
2022-10-09T23:38:45.416Z,94.03
2022-10-09T23:41:15.232Z,94.07
2022-10-09T23:43:43.001Z,93.89
2022-10-09T23:46:13.325Z,94.23
2022-10-09T23:48:39.875Z,94.40
2022-10-09T23:51:06.886Z,94.39
2022-10-09T23:53:34.999Z,94.39
2022-10-09T23:56:04.897Z,94.42
2022-10-09T23:58:31.420Z,94.72
